createdAt,value
2022-08-09T00:00:00.620Z,60.98
2022-08-09T00:02:36.447Z,60.97
2022-08-09T00:06:18.465Z,60.88
2022-08-09T00:08:10.171Z,61.21
2022-08-09T00:10:42.198Z,61.07
2022-08-09T00:13:17.692Z,61.02
2022-08-09T00:15:58.944Z,60.84
2022-08-09T00:18:34.734Z,60.61
2022-08-09T00:21:07.980Z,60.76
2022-08-09T00:23:54.986Z,60.71
2022-08-09T00:26:33.148Z,60.97
2022-08-09T00:29:12.333Z,61.25
2022-08-09T00:32:00.891Z,60.85
2022-08-09T00:34:33.556Z,61.08
2022-08-09T00:37:05.519Z,60.51
2022-08-09T00:40:13.629Z,61.27
2022-08-09T00:44:17.022Z,60.76
2022-08-09T00:45:22.239Z,61.28
2022-08-09T00:47:55.500Z,60.93
2022-08-09T00:50:27.489Z,61.32
2022-08-09T00:52:59.538Z,60.98
2022-08-09T00:56:02.962Z,61.26
2022-08-09T00:58:26.203Z,61.38
2022-08-09T01:01:00.065Z,61.55
2022-08-09T01:03:32.802Z,61.32
2022-08-09T01:06:17.345Z,61.18
2022-08-09T01:08:51.649Z,61.61
2022-08-09T01:11:23.921Z,61.34
2022-08-09T01:14:00.326Z,61.32
2022-08-09T01:16:35.151Z,61.53
2022-08-09T01:19:07.391Z,61.18
2022-08-09T01:21:51.207Z,61.31
2022-08-09T01:24:23.844Z,61.26
2022-08-09T01:26:56.428Z,61.38
2022-08-09T01:29:28.351Z,61.07
2022-08-09T01:32:29.438Z,61.58
2022-08-09T01:35:06.984Z,61.58
2022-08-09T01:38:08.174Z,61.54
2022-08-09T01:40:41.727Z,61.82
2022-08-09T01:43:13.250Z,61.53
2022-08-09T01:45:47.740Z,61.42
2022-08-09T01:48:19.349Z,61.57
2022-08-09T01:50:56.072Z,61.56
2022-08-09T01:53:41.642Z,62.18
2022-08-09T01:56:13.994Z,62.28
2022-08-09T01:58:48.861Z,62.22
2022-08-09T02:01:21.454Z,62.51
2022-08-09T02:04:12.297Z,62.78
2022-08-09T02:07:03.002Z,62.87
2022-08-09T02:09:42.154Z,63.07
2022-08-09T02:12:18.092Z,63.35
2022-08-09T02:14:53.465Z,63.31
2022-08-09T02:18:00.080Z,63.45
2022-08-09T02:20:26.573Z,63.55
2022-08-09T02:23:04.547Z,63.79
2022-08-09T02:25:42.589Z,63.52
2022-08-09T02:28:21.058Z,63.46
2022-08-09T02:30:55.953Z,63.57
2022-08-09T02:33:58.385Z,63.79
2022-08-09T02:36:19.528Z,63.55
2022-08-09T02:38:51.066Z,64.04
2022-08-09T02:41:22.618Z,63.87
2022-08-09T02:43:55.586Z,63.58
2022-08-09T02:46:28.401Z,64.03
2022-08-09T02:49:00.233Z,63.65
2022-08-09T02:51:37.239Z,63.64
2022-08-09T02:54:13.900Z,63.89
2022-08-09T02:56:45.991Z,63.66
2022-08-09T02:59:26.195Z,63.77
2022-08-09T03:02:11.957Z,63.89
2022-08-09T03:04:43.913Z,64.03
2022-08-09T03:07:16.755Z,64.23
2022-08-09T03:09:56.406Z,64.15
2022-08-09T03:12:28.875Z,63.98
2022-08-09T03:15:00.723Z,64.13
2022-08-09T03:17:32.531Z,63.91
2022-08-09T03:20:11.231Z,64.08
2022-08-09T03:22:46.839Z,63.96
2022-08-09T03:25:58.260Z,63.95
2022-08-09T03:28:20.348Z,63.68
2022-08-09T03:30:52.704Z,63.84
2022-08-09T03:33:24.237Z,63.71
2022-08-09T03:36:12.904Z,63.97
2022-08-09T03:38:46.988Z,64.09
2022-08-09T03:41:19.000Z,64.10
2022-08-09T03:44:03.043Z,64.07
2022-08-09T03:46:40.540Z,63.83
2022-08-09T03:49:12.074Z,63.91
2022-08-09T03:51:58.290Z,63.90
2022-08-09T03:54:31.460Z,63.91
2022-08-09T03:57:04.333Z,63.82
2022-08-09T03:59:53.381Z,63.96
2022-08-09T04:02:28.212Z,64.34
2022-08-09T04:05:06.521Z,64.10
2022-08-09T04:07:53.691Z,63.95
2022-08-09T04:10:30.454Z,64.07
2022-08-09T04:13:09.419Z,64.18
2022-08-09T04:16:20.516Z,63.79
2022-08-09T04:18:36.807Z,64.31
2022-08-09T04:21:09.375Z,63.79
2022-08-09T04:23:40.870Z,63.89
2022-08-09T04:26:38.053Z,63.93
2022-08-09T04:29:15.498Z,63.69
2022-08-09T04:31:47.702Z,63.35
2022-08-09T04:34:30.789Z,62.87
2022-08-09T04:37:03.877Z,63.27
2022-08-09T04:39:40.584Z,63.01
2022-08-09T04:42:15.919Z,63.44
2022-08-09T04:44:50.409Z,63.18
2022-08-09T04:47:24.833Z,62.75
2022-08-09T04:49:56.639Z,62.77
2022-08-09T04:52:28.143Z,62.90
2022-08-09T04:55:00.163Z,62.85
2022-08-09T04:57:54.139Z,62.48
2022-08-09T05:00:23.764Z,62.51
2022-08-09T05:02:56.721Z,62.52
2022-08-09T05:05:32.161Z,62.39
2022-08-09T05:08:20.582Z,62.06
2022-08-09T05:10:53.308Z,61.90
2022-08-09T05:13:25.201Z,62.18
2022-08-09T05:15:58.584Z,61.92
2022-08-09T05:18:38.601Z,61.36
2022-08-09T05:21:29.801Z,60.87
2022-08-09T05:24:04.107Z,60.67
2022-08-09T05:26:45.693Z,60.43
2022-08-09T05:29:22.840Z,60.64
2022-08-09T05:32:00.434Z,59.91
2022-08-09T05:34:32.793Z,59.96
2022-08-09T05:37:05.223Z,59.80
2022-08-09T05:39:43.333Z,59.42
2022-08-09T05:42:17.483Z,59.40
2022-08-09T05:45:05.465Z,59.22
2022-08-09T05:47:45.619Z,58.85
2022-08-09T05:50:44.307Z,58.27
2022-08-09T05:53:21.430Z,58.16
2022-08-09T05:56:04.401Z,57.48
2022-08-09T05:58:36.579Z,57.10
2022-08-09T06:01:08.582Z,57.14
2022-08-09T06:03:57.997Z,56.94
2022-08-09T06:06:30.846Z,56.53
2022-08-09T06:09:05.591Z,56.53
2022-08-09T06:11:57.598Z,55.78
2022-08-09T06:14:29.494Z,55.44
2022-08-09T06:17:09.202Z,55.96
2022-08-09T06:19:41.452Z,54.92
2022-08-09T06:22:15.400Z,54.84
2022-08-09T06:24:47.604Z,54.95
2022-08-09T06:27:20.512Z,54.75
2022-08-09T06:30:04.306Z,53.76
2022-08-09T06:32:59.509Z,53.02
2022-08-09T06:35:55.834Z,53.62
2022-08-09T06:38:20.514Z,53.36
2022-08-09T06:41:04.100Z,52.66
2022-08-09T06:43:36.321Z,51.74
2022-08-09T06:46:11.551Z,50.45
2022-08-09T06:49:03.024Z,50.66
2022-08-09T06:51:40.006Z,50.56
2022-08-09T06:54:14.771Z,50.62
2022-08-09T06:56:46.901Z,51.67
2022-08-09T07:00:50.915Z,51.75
2022-08-09T07:02:10.731Z,51.30
2022-08-09T07:04:42.659Z,51.16
2022-08-09T07:07:28.529Z,50.57
2022-08-09T07:10:24.401Z,48.98
2022-08-09T07:12:59.342Z,47.29
2022-08-09T07:15:53.995Z,47.03
2022-08-09T07:18:23.066Z,47.90
2022-08-09T07:20:54.865Z,48.52
2022-08-09T07:23:27.308Z,48.31
2022-08-09T07:26:02.803Z,47.32
2022-08-09T07:28:35.623Z,45.98
2022-08-09T07:31:07.197Z,45.50
2022-08-09T07:33:53.012Z,44.37
2022-08-09T07:36:27.587Z,44.22
2022-08-09T07:39:02.246Z,43.29
2022-08-09T07:41:38.780Z,42.56
2022-08-09T07:44:11.778Z,43.67
2022-08-09T07:46:43.426Z,43.13
2022-08-09T07:49:15.681Z,43.22
2022-08-09T07:52:03.425Z,44.05
2022-08-09T07:54:38.689Z,45.61
2022-08-09T07:57:11.758Z,46.99
2022-08-09T07:59:52.266Z,45.89
2022-08-09T08:02:35.325Z,46.72
2022-08-09T08:05:18.521Z,46.95
2022-08-09T08:08:43.540Z,46.62
2022-08-09T08:11:03.140Z,45.87
2022-08-09T08:13:44.993Z,45.22
2022-08-09T08:16:31.365Z,44.24
2022-08-09T08:19:04.583Z,44.35
2022-08-09T08:21:39.451Z,41.92
2022-08-09T08:24:16.578Z,41.04
2022-08-09T08:26:55.538Z,41.49
2022-08-09T08:29:28.632Z,40.38
2022-08-09T08:32:12.494Z,41.49
2022-08-09T08:34:51.931Z,41.33
2022-08-09T08:37:41.069Z,42.42
2022-08-09T08:40:19.096Z,41.32
2022-08-09T08:42:50.971Z,39.83
2022-08-09T08:45:37.114Z,39.42
2022-08-09T08:48:10.198Z,38.50
2022-08-09T08:50:49.257Z,38.45
2022-08-09T08:53:23.802Z,37.89
2022-08-09T08:56:03.889Z,37.65
2022-08-09T08:58:36.193Z,37.82
2022-08-09T09:01:20.962Z,37.78
2022-08-09T09:03:56.762Z,36.66
2022-08-09T09:06:28.322Z,36.20
2022-08-09T09:09:00.190Z,35.73
2022-08-09T09:11:33.878Z,35.92
2022-08-09T09:14:10.438Z,35.37
2022-08-09T09:16:47.337Z,34.96
2022-08-09T09:19:40.147Z,35.22
2022-08-09T09:22:11.984Z,34.30
2022-08-09T09:24:44.725Z,34.72
2022-08-09T09:27:22.083Z,33.91
2022-08-09T09:30:14.312Z,33.78
2022-08-09T09:32:57.791Z,33.62
2022-08-09T09:35:33.206Z,33.81
2022-08-09T09:38:05.214Z,33.11
2022-08-09T09:40:36.768Z,33.36
2022-08-09T09:43:08.704Z,32.94
2022-08-09T09:48:36.991Z,31.79
2022-08-09T09:51:18.835Z,32.45
2022-08-09T09:54:01.289Z,32.27
2022-08-09T09:56:36.269Z,32.97
2022-08-09T09:59:35.236Z,31.95
2022-08-09T10:02:07.107Z,32.02
2022-08-09T10:04:39.924Z,32.98
2022-08-09T10:07:11.494Z,32.20
2022-08-09T10:09:48.513Z,32.63
2022-08-09T10:12:28.512Z,31.74
2022-08-09T10:15:03.039Z,32.24
2022-08-09T10:17:50.322Z,31.64
2022-08-09T10:20:35.444Z,31.98
2022-08-09T10:23:07.957Z,32.19
2022-08-09T10:26:07.887Z,30.92
2022-08-09T10:28:31.952Z,31.30
2022-08-09T10:34:10.453Z,30.74
2022-08-09T10:36:47.188Z,30.42
2022-08-09T10:39:20.084Z,29.23
2022-08-09T10:41:52.393Z,29.25
2022-08-09T10:44:26.582Z,28.87
2022-08-09T10:47:01.514Z,29.12
2022-08-09T10:49:42.755Z,28.22
2022-08-09T10:52:23.097Z,28.33
2022-08-09T10:54:58.051Z,28.73
2022-08-09T10:57:30.538Z,28.19
2022-08-09T11:00:02.195Z,28.09
2022-08-09T11:03:11.361Z,28.39
2022-08-09T11:05:35.626Z,27.22
2022-08-09T11:08:09.949Z,28.00
2022-08-09T11:10:47.145Z,27.86
2022-08-09T11:13:50.219Z,28.65
2022-08-09T11:16:34.839Z,26.44
2022-08-09T11:19:09.332Z,26.40
2022-08-09T11:21:42.667Z,26.13
2022-08-09T11:24:28.431Z,26.24
2022-08-09T11:27:03.616Z,26.71
2022-08-09T11:30:04.039Z,26.29
2022-08-09T11:32:30.229Z,27.28
2022-08-09T11:35:04.477Z,28.60
2022-08-09T11:37:41.386Z,28.63
2022-08-09T11:40:14.799Z,29.35
2022-08-09T11:42:50.195Z,30.25
2022-08-09T11:45:23.238Z,29.01
2022-08-09T11:48:03.515Z,27.86
2022-08-09T11:50:55.786Z,27.18
2022-08-09T11:54:00.491Z,28.53
2022-08-09T11:56:34.415Z,27.63
2022-08-09T11:59:14.391Z,27.06
2022-08-09T12:02:34.787Z,27.03
2022-08-09T12:04:38.323Z,25.80
2022-08-09T12:07:10.953Z,26.07
2022-08-09T12:09:50.598Z,25.50
2022-08-09T12:12:29.169Z,24.56
2022-08-09T12:15:08.299Z,25.18
2022-08-09T12:17:44.462Z,25.21
2022-08-09T12:20:22.470Z,26.49
2022-08-09T12:22:55.975Z,28.32
2022-08-09T12:25:35.733Z,26.78
2022-08-09T12:29:10.284Z,26.71
2022-08-09T12:31:01.521Z,26.22
2022-08-09T12:33:51.450Z,26.04
2022-08-09T12:36:27.396Z,26.04
2022-08-09T12:39:04.217Z,25.84
2022-08-09T12:41:39.957Z,27.66
2022-08-09T12:44:12.982Z,27.45
2022-08-09T12:46:48.876Z,28.20
2022-08-09T12:49:22.717Z,28.48
2022-08-09T12:52:01.502Z,28.02
2022-08-09T12:54:34.850Z,29.34
2022-08-09T12:57:06.789Z,28.03
2022-08-09T13:00:03.480Z,29.04
2022-08-09T13:02:33.957Z,29.45
2022-08-09T13:05:06.423Z,28.55
2022-08-09T13:07:51.025Z,26.86
2022-08-09T13:10:23.584Z,26.77
2022-08-09T13:13:09.941Z,27.80
2022-08-09T13:15:42.547Z,28.58
2022-08-09T13:18:17.446Z,29.38
2022-08-09T13:21:04.269Z,30.07
2022-08-09T13:24:06.936Z,30.32
2022-08-09T13:26:36.908Z,30.56
2022-08-09T13:29:08.922Z,31.22
2022-08-09T13:32:15.665Z,31.05
2022-08-09T13:34:32.585Z,31.11
2022-08-09T13:37:05.468Z,31.35
2022-08-09T13:41:50.414Z,30.97
2022-08-09T13:42:36.498Z,31.04
2022-08-09T13:45:08.371Z,30.96
2022-08-09T13:47:49.175Z,31.57
2022-08-09T13:50:31.105Z,31.59
2022-08-09T13:53:03.684Z,31.45
2022-08-09T13:55:37.007Z,30.92
2022-08-09T13:58:11.810Z,30.74
2022-08-09T14:00:50.631Z,30.47
2022-08-09T14:04:02.525Z,31.43
2022-08-09T14:06:25.625Z,31.20
2022-08-09T14:09:00.851Z,30.57
2022-08-09T14:11:41.326Z,28.36
2022-08-09T14:14:25.715Z,28.15
2022-08-09T14:16:59.683Z,29.54
2022-08-09T14:19:33.627Z,30.00
2022-08-09T14:22:05.866Z,28.42
2022-08-09T14:24:46.932Z,27.58
2022-08-09T14:27:26.744Z,26.43
2022-08-09T14:30:34.667Z,25.87
2022-08-09T14:32:50.144Z,26.50
2022-08-09T14:35:21.792Z,25.57
2022-08-09T14:38:02.067Z,25.50
2022-08-09T14:41:01.173Z,25.14
2022-08-09T14:43:26.545Z,24.85
2022-08-09T14:46:57.305Z,25.52
2022-08-09T14:49:10.571Z,24.36
2022-08-09T14:51:42.802Z,23.94
2022-08-09T14:54:16.728Z,24.04
2022-08-09T14:56:58.666Z,24.52
2022-08-09T14:59:30.798Z,24.79
2022-08-09T15:02:02.651Z,24.36
2022-08-09T15:04:34.185Z,24.53
2022-08-09T15:07:05.894Z,24.77
2022-08-09T15:10:04.082Z,25.24
2022-08-09T15:12:33.929Z,25.63
2022-08-09T15:15:08.686Z,26.33
2022-08-09T15:17:42.096Z,27.13
2022-08-09T15:21:53.558Z,27.99
2022-08-09T15:24:02.278Z,28.34
2022-08-09T15:25:58.943Z,28.66
2022-08-09T15:28:33.269Z,29.52
2022-08-09T15:31:09.968Z,28.11
2022-08-09T15:34:15.445Z,27.63
2022-08-09T15:36:34.988Z,27.11
2022-08-09T15:39:06.573Z,27.05
2022-08-09T15:41:38.429Z,27.54
2022-08-09T15:44:14.163Z,27.20
2022-08-09T15:46:51.251Z,28.44
2022-08-09T15:49:23.924Z,27.84
2022-08-09T15:52:04.934Z,27.44
2022-08-09T15:54:48.889Z,28.59
2022-08-09T15:57:35.178Z,28.76
2022-08-09T16:00:24.352Z,28.81
2022-08-09T16:02:57.808Z,29.19
2022-08-09T16:05:47.238Z,29.15
2022-08-09T16:08:30.932Z,29.46
2022-08-09T16:11:02.941Z,30.05
2022-08-09T16:14:03.391Z,30.58
2022-08-09T16:16:29.634Z,30.79
2022-08-09T16:19:01.180Z,30.84
2022-08-09T16:21:34.846Z,30.84
2022-08-09T16:24:13.090Z,31.36
2022-08-09T16:26:58.611Z,31.80
2022-08-09T16:29:37.752Z,31.62
2022-08-09T16:32:43.486Z,31.89
2022-08-09T16:35:19.380Z,32.08
2022-08-09T16:38:05.270Z,32.38
2022-08-09T16:40:41.027Z,32.24
2022-08-09T16:43:14.394Z,32.44
2022-08-09T16:45:46.557Z,32.58
2022-08-09T16:48:42.403Z,32.74
2022-08-09T16:51:13.930Z,33.38
2022-08-09T16:56:37.929Z,34.11
2022-08-09T16:59:21.072Z,34.11
2022-08-09T17:01:53.295Z,34.21
2022-08-09T17:04:28.266Z,34.61
2022-08-09T17:08:40.585Z,34.56
2022-08-09T17:09:52.311Z,34.46
2022-08-09T17:12:33.642Z,34.67
2022-08-09T17:15:30.489Z,35.17
2022-08-09T17:18:00.859Z,35.67
2022-08-09T17:20:37.308Z,35.65
2022-08-09T17:23:14.861Z,36.14
2022-08-09T17:25:53.041Z,36.17
2022-08-09T17:28:24.876Z,36.29
2022-08-09T17:30:58.801Z,36.62
2022-08-09T17:33:32.264Z,36.90
2022-08-09T17:36:10.949Z,36.70
2022-08-09T17:38:57.702Z,36.80
2022-08-09T17:41:38.813Z,36.97
2022-08-09T17:44:42.401Z,37.14
2022-08-09T17:47:03.993Z,37.05
2022-08-09T17:49:35.675Z,37.48
2022-08-09T17:52:07.504Z,37.66
2022-08-09T17:54:54.514Z,38.43
2022-08-09T17:58:03.820Z,38.91
2022-08-09T18:00:20.618Z,39.10
2022-08-09T18:03:12.737Z,39.28
2022-08-09T18:05:44.601Z,39.60
2022-08-09T18:08:16.286Z,39.42
2022-08-09T18:11:02.278Z,39.66
2022-08-09T18:13:43.500Z,39.98
2022-08-09T18:16:29.666Z,39.96
2022-08-09T18:19:03.798Z,40.09
2022-08-09T18:21:41.317Z,40.25
2022-08-09T18:24:14.243Z,40.52
2022-08-09T18:26:49.401Z,40.52
2022-08-09T18:30:40.712Z,40.75
2022-08-09T18:32:12.954Z,41.22
2022-08-09T18:34:44.447Z,41.08
2022-08-09T18:37:48.993Z,41.36
2022-08-09T18:40:08.270Z,42.03
2022-08-09T18:42:43.013Z,42.14
2022-08-09T18:45:21.456Z,42.46
2022-08-09T18:48:07.302Z,42.81
2022-08-09T18:50:39.927Z,43.07
2022-08-09T18:53:13.634Z,43.53
2022-08-09T18:55:56.218Z,43.62
2022-08-09T18:58:31.989Z,43.99
2022-08-09T19:01:04.552Z,44.50
2022-08-09T19:03:54.686Z,44.80
2022-08-09T19:06:28.030Z,45.09
2022-08-09T19:09:02.522Z,45.17
2022-08-09T19:11:37.860Z,45.70
2022-08-09T19:14:09.985Z,45.78
2022-08-09T19:16:50.112Z,46.11
2022-08-09T19:19:26.024Z,46.10
2022-08-09T19:22:06.191Z,46.42
2022-08-09T19:25:11.304Z,46.53
2022-08-09T19:27:31.129Z,46.80
2022-08-09T19:30:22.497Z,46.89
2022-08-09T19:32:55.244Z,47.17
2022-08-09T19:35:27.153Z,47.08
2022-08-09T19:37:58.669Z,47.31
2022-08-09T19:40:33.357Z,47.59
2022-08-09T19:43:10.336Z,47.86
2022-08-09T19:45:48.367Z,48.08
2022-08-09T19:49:00.155Z,48.03
2022-08-09T19:51:20.374Z,48.43
2022-08-09T19:53:52.028Z,48.43
2022-08-09T19:56:29.110Z,48.77
2022-08-09T19:59:39.992Z,48.97
2022-08-09T20:02:08.010Z,49.43
2022-08-09T20:04:54.988Z,49.61
2022-08-09T20:07:56.962Z,49.96
2022-08-09T20:10:22.379Z,50.52
2022-08-09T20:13:00.352Z,50.32
2022-08-09T20:16:37.518Z,50.53
2022-08-09T20:18:27.811Z,50.86
2022-08-09T20:21:00.284Z,51.17
2022-08-09T20:23:38.922Z,51.52
2022-08-09T20:26:13.295Z,51.81
2022-08-09T20:28:48.611Z,52.19
2022-08-09T20:31:22.330Z,52.49
2022-08-09T20:33:58.440Z,52.65
2022-08-09T20:36:33.908Z,52.88
2022-08-09T20:39:29.155Z,53.10
2022-08-09T20:41:57.930Z,53.40
2022-08-09T20:44:33.262Z,53.72
2022-08-09T20:47:08.235Z,53.97
2022-08-09T20:49:59.778Z,54.48
2022-08-09T20:52:31.285Z,54.77
2022-08-09T20:55:03.259Z,55.13
2022-08-09T20:57:34.827Z,55.12
2022-08-09T21:00:31.617Z,55.38
2022-08-09T21:03:04.919Z,55.69
2022-08-09T21:05:55.005Z,55.78
2022-08-09T21:08:36.619Z,56.21
2022-08-09T21:14:00.669Z,56.89
2022-08-09T21:16:32.661Z,57.05
2022-08-09T21:20:19.618Z,57.41
2022-08-09T21:21:57.288Z,57.97
2022-08-09T21:24:32.469Z,58.15
2022-08-09T21:27:50.520Z,58.36
2022-08-09T21:29:57.212Z,58.86
2022-08-09T21:32:33.260Z,58.87
2022-08-09T21:35:05.756Z,59.16
2022-08-09T21:37:47.183Z,59.39
2022-08-09T21:40:32.603Z,59.69
2022-08-09T21:43:04.303Z,59.86
2022-08-09T21:45:38.849Z,60.29
2022-08-09T21:48:10.749Z,60.38
2022-08-09T21:50:49.703Z,60.67
2022-08-09T21:53:40.120Z,60.90
2022-08-09T21:56:28.307Z,61.32
2022-08-09T21:59:04.777Z,61.57
2022-08-09T22:01:58.710Z,61.83
2022-08-09T22:04:55.699Z,62.06
2022-08-09T22:07:35.534Z,62.18
2022-08-09T22:10:12.347Z,62.28
2022-08-09T22:12:49.773Z,62.81
2022-08-09T22:15:23.375Z,62.90
2022-08-09T22:18:11.971Z,63.26
2022-08-09T22:20:44.325Z,63.46
2022-08-09T22:23:17.643Z,63.42
2022-08-09T22:26:07.384Z,63.63
2022-08-09T22:28:47.099Z,63.97
2022-08-09T22:31:25.871Z,64.28
2022-08-09T22:33:59.489Z,64.54
2022-08-09T22:36:37.315Z,64.80
2022-08-09T22:39:47.015Z,64.90
2022-08-09T22:42:21.443Z,65.06
2022-08-09T22:48:05.187Z,65.29
2022-08-09T22:48:13.618Z,65.68
2022-08-09T22:50:37.812Z,65.73
2022-08-09T22:53:09.329Z,66.28
2022-08-09T22:56:29.476Z,66.08
2022-08-09T22:58:33.576Z,66.77
2022-08-09T23:01:06.614Z,66.85
2022-08-09T23:04:04.134Z,67.00
2022-08-09T23:06:49.954Z,67.30
2022-08-09T23:09:21.814Z,67.49
2022-08-09T23:11:53.618Z,67.73
2022-08-09T23:14:41.410Z,68.11
2022-08-09T23:17:14.481Z,68.31
2022-08-09T23:20:00.589Z,68.77
2022-08-09T23:22:37.763Z,68.88
2022-08-09T23:25:11.153Z,69.24
2022-08-09T23:28:11.856Z,69.53
2022-08-09T23:30:34.700Z,69.32
2022-08-09T23:33:06.187Z,70.06
2022-08-09T23:36:04.440Z,70.13
2022-08-09T23:38:29.511Z,70.25
2022-08-09T23:41:01.322Z,70.86
2022-08-09T23:43:32.850Z,70.77
2022-08-09T23:46:04.729Z,71.20
2022-08-09T23:48:36.222Z,72.09
2022-08-09T23:51:08.046Z,72.18
2022-08-09T23:53:39.555Z,72.17
2022-08-09T23:56:11.397Z,72.29
2022-08-09T23:58:42.911Z,72.79
